sensor_id;sensor_type;location;lat;lon;timestamp;P1;durP1;ratioP1;P2;durP2;ratioP2
2201;SDS011;1107;48.654;9.250;2023-06-14T00:01:13;7.03;;;6.60;;
2201;SDS011;1107;48.654;9.250;2023-06-14T00:03:40;9.30;;;6.50;;
2201;SDS011;1107;48.654;9.250;2023-06-14T00:06:07;6.53;;;6.23;;
2201;SDS011;1107;48.654;9.250;2023-06-14T00:08:34;7.83;;;7.13;;
2201;SDS011;1107;48.654;9.250;2023-06-14T00:11:01;7.67;;;7.27;;
2201;SDS011;1107;48.654;9.250;2023-06-14T00:13:28;7.93;;;7.50;;
2201;SDS011;1107;48.654;9.250;2023-06-14T00:15:56;8.00;;;7.50;;
2201;SDS011;1107;48.654;9.250;2023-06-14T00:18:23;8.87;;;8.03;;
2201;SDS011;1107;48.654;9.250;2023-06-14T00:20:51;9.20;;;8.43;;
2201;SDS011;1107;48.654;9.250;2023-06-14T00:23:18;7.97;;;7.57;;
2201;SDS011;1107;48.654;9.250;2023-06-14T00:25:45;9.27;;;8.57;;
2201;SDS011;1107;48.654;9.250;2023-06-14T00:28:12;9.97;;;9.40;;
2201;SDS011;1107;48.654;9.250;2023-06-14T00:30:39;9.57;;;8.60;;
2201;SDS011;1107;48.654;9.250;2023-06-14T00:33:10;9.57;;;9.07;;
2201;SDS011;1107;48.654;9.250;2023-06-14T00:35:37;10.23;;;9.50;;
2201;SDS011;1107;48.654;9.250;2023-06-14T00:38:05;10.87;;;9.50;;
2201;SDS011;1107;48.654;9.250;2023-06-14T00:40:32;11.53;;;10.63;;
2201;SDS011;1107;48.654;9.250;2023-06-14T00:42:59;10.47;;;9.43;;
2201;SDS011;1107;48.654;9.250;2023-06-14T00:45:27;8.87;;;8.37;;
2201;SDS011;1107;48.654;9.250;2023-06-14T00:47:54;9.33;;;8.63;;
2201;SDS011;1107;48.654;9.250;2023-06-14T00:50:23;10.03;;;9.33;;
2201;SDS011;1107;48.654;9.250;2023-06-14T00:52:50;10.03;;;9.20;;
2201;SDS011;1107;48.654;9.250;2023-06-14T00:55:17;8.50;;;8.00;;
2201;SDS011;1107;48.654;9.250;2023-06-14T00:57:44;9.30;;;8.80;;
2201;SDS011;1107;48.654;9.250;2023-06-14T01:00:11;8.70;;;8.20;;
2201;SDS011;1107;48.654;9.250;2023-06-14T01:02:39;9.50;;;8.77;;
2201;SDS011;1107;48.654;9.250;2023-06-14T01:05:07;9.17;;;8.37;;
2201;SDS011;1107;48.654;9.250;2023-06-14T01:07:40;8.80;;;8.00;;
2201;SDS011;1107;48.654;9.250;2023-06-14T01:10:24;11.63;;;8.70;;
2201;SDS011;1107;48.654;9.250;2023-06-14T01:13:03;8.77;;;8.37;;
2201;SDS011;1107;48.654;9.250;2023-06-14T01:15:37;9.03;;;8.43;;
2201;SDS011;1107;48.654;9.250;2023-06-14T01:18:05;9.37;;;8.77;;
2201;SDS011;1107;48.654;9.250;2023-06-14T01:20:32;16.60;;;8.60;;
2201;SDS011;1107;48.654;9.250;2023-06-14T01:23:03;9.40;;;8.83;;
2201;SDS011;1107;48.654;9.250;2023-06-14T01:25:30;9.13;;;8.47;;
2201;SDS011;1107;48.654;9.250;2023-06-14T01:28:05;8.90;;;8.30;;
2201;SDS011;1107;48.654;9.250;2023-06-14T01:30:35;13.37;;;8.27;;
2201;SDS011;1107;48.654;9.250;2023-06-14T01:33:04;7.80;;;7.50;;
2201;SDS011;1107;48.654;9.250;2023-06-14T01:35:31;7.77;;;7.20;;
2201;SDS011;1107;48.654;9.250;2023-06-14T01:37:58;11.60;;;8.07;;
2201;SDS011;1107;48.654;9.250;2023-06-14T01:40:28;7.87;;;7.37;;
2201;SDS011;1107;48.654;9.250;2023-06-14T01:42:56;8.57;;;7.77;;
2201;SDS011;1107;48.654;9.250;2023-06-14T01:45:24;8.37;;;7.77;;
2201;SDS011;1107;48.654;9.250;2023-06-14T01:47:52;7.50;;;7.10;;
2201;SDS011;1107;48.654;9.250;2023-06-14T01:50:19;8.13;;;7.47;;
2201;SDS011;1107;48.654;9.250;2023-06-14T01:52:46;8.53;;;7.80;;
2201;SDS011;1107;48.654;9.250;2023-06-14T01:55:13;8.07;;;7.47;;
2201;SDS011;1107;48.654;9.250;2023-06-14T01:57:44;9.70;;;9.10;;
2201;SDS011;1107;48.654;9.250;2023-06-14T02:00:11;8.23;;;7.83;;
2201;SDS011;1107;48.654;9.250;2023-06-14T02:02:39;7.93;;;7.53;;
2201;SDS011;1107;48.654;9.250;2023-06-14T02:05:06;7.73;;;7.33;;
2201;SDS011;1107;48.654;9.250;2023-06-14T02:07:34;8.40;;;7.97;;
2201;SDS011;1107;48.654;9.250;2023-06-14T02:10:01;10.37;;;9.40;;
2201;SDS011;1107;48.654;9.250;2023-06-14T02:12:28;8.07;;;7.60;;
2201;SDS011;1107;48.654;9.250;2023-06-14T02:14:56;8.13;;;7.23;;
2201;SDS011;1107;48.654;9.250;2023-06-14T02:17:23;7.83;;;6.60;;
2201;SDS011;1107;48.654;9.250;2023-06-14T02:19:51;8.30;;;7.80;;
2201;SDS011;1107;48.654;9.250;2023-06-14T02:22:18;8.67;;;7.97;;
2201;SDS011;1107;48.654;9.250;2023-06-14T02:24:47;7.50;;;7.10;;
2201;SDS011;1107;48.654;9.250;2023-06-14T02:27:14;8.03;;;7.30;;
2201;SDS011;1107;48.654;9.250;2023-06-14T02:29:41;8.33;;;7.87;;
2201;SDS011;1107;48.654;9.250;2023-06-14T02:32:09;7.43;;;6.83;;
2201;SDS011;1107;48.654;9.250;2023-06-14T02:34:36;11.43;;;8.17;;
2201;SDS011;1107;48.654;9.250;2023-06-14T02:37:05;7.80;;;7.30;;
2201;SDS011;1107;48.654;9.250;2023-06-14T02:39:33;8.90;;;8.00;;
2201;SDS011;1107;48.654;9.250;2023-06-14T02:42:00;7.63;;;7.03;;
2201;SDS011;1107;48.654;9.250;2023-06-14T02:44:27;7.73;;;7.13;;
2201;SDS011;1107;48.654;9.250;2023-06-14T02:46:54;8.77;;;7.87;;
2201;SDS011;1107;48.654;9.250;2023-06-14T02:49:23;8.47;;;7.87;;
2201;SDS011;1107;48.654;9.250;2023-06-14T02:51:50;8.23;;;7.43;;
2201;SDS011;1107;48.654;9.250;2023-06-14T02:54:17;8.40;;;7.80;;
2201;SDS011;1107;48.654;9.250;2023-06-14T02:56:44;7.73;;;7.13;;
2201;SDS011;1107;48.654;9.250;2023-06-14T02:59:11;7.43;;;7.03;;
2201;SDS011;1107;48.654;9.250;2023-06-14T03:01:38;7.60;;;7.10;;
2201;SDS011;1107;48.654;9.250;2023-06-14T03:04:06;8.83;;;7.60;;
2201;SDS011;1107;48.654;9.250;2023-06-14T03:06:35;8.10;;;7.70;;
2201;SDS011;1107;48.654;9.250;2023-06-14T03:09:02;8.17;;;7.57;;
2201;SDS011;1107;48.654;9.250;2023-06-14T03:11:30;8.77;;;7.90;;
2201;SDS011;1107;48.654;9.250;2023-06-14T03:13:58;8.77;;;7.67;;
2201;SDS011;1107;48.654;9.250;2023-06-14T03:16:28;8.43;;;7.63;;
2201;SDS011;1107;48.654;9.250;2023-06-14T03:18:56;14.73;;;7.40;;
2201;SDS011;1107;48.654;9.250;2023-06-14T03:21:23;10.50;;;8.37;;
2201;SDS011;1107;48.654;9.250;2023-06-14T03:23:52;10.33;;;7.67;;
2201;SDS011;1107;48.654;9.250;2023-06-14T03:26:19;7.13;;;6.83;;
2201;SDS011;1107;48.654;9.250;2023-06-14T03:28:47;7.50;;;6.90;;
2201;SDS011;1107;48.654;9.250;2023-06-14T03:31:14;8.87;;;7.93;;
2201;SDS011;1107;48.654;9.250;2023-06-14T03:33:42;8.30;;;7.50;;
2201;SDS011;1107;48.654;9.250;2023-06-14T03:36:08;8.53;;;7.20;;
2201;SDS011;1107;48.654;9.250;2023-06-14T03:38:35;8.27;;;7.50;;
2201;SDS011;1107;48.654;9.250;2023-06-14T03:41:04;7.20;;;6.80;;
2201;SDS011;1107;48.654;9.250;2023-06-14T03:43:31;7.40;;;7.00;;
2201;SDS011;1107;48.654;9.250;2023-06-14T03:45:58;8.07;;;7.47;;
2201;SDS011;1107;48.654;9.250;2023-06-14T03:48:25;9.13;;;8.20;;
2201;SDS011;1107;48.654;9.250;2023-06-14T03:50:52;7.50;;;7.20;;
2201;SDS011;1107;48.654;9.250;2023-06-14T03:53:20;11.93;;;7.23;;
2201;SDS011;1107;48.654;9.250;2023-06-14T03:55:48;7.10;;;6.70;;
2201;SDS011;1107;48.654;9.250;2023-06-14T03:58:18;14.67;;;7.37;;
2201;SDS011;1107;48.654;9.250;2023-06-14T04:00:46;8.93;;;8.10;;
2201;SDS011;1107;48.654;9.250;2023-06-14T04:03:13;7.50;;;7.10;;
2201;SDS011;1107;48.654;9.250;2023-06-14T04:05:41;7.73;;;7.23;;
2201;SDS011;1107;48.654;9.250;2023-06-14T04:08:09;8.63;;;7.83;;
2201;SDS011;1107;48.654;9.250;2023-06-14T04:10:39;9.13;;;8.10;;
2201;SDS011;1107;48.654;9.250;2023-06-14T04:13:06;8.10;;;7.53;;
2201;SDS011;1107;48.654;9.250;2023-06-14T04:15:38;11.47;;;8.03;;
2201;SDS011;1107;48.654;9.250;2023-06-14T04:18:07;8.10;;;7.60;;
2201;SDS011;1107;48.654;9.250;2023-06-14T04:20:34;7.40;;;6.80;;
2201;SDS011;1107;48.654;9.250;2023-06-14T04:23:10;7.80;;;7.30;;
2201;SDS011;1107;48.654;9.250;2023-06-14T04:25:38;9.57;;;8.70;;
2201;SDS011;1107;48.654;9.250;2023-06-14T04:28:05;8.63;;;8.13;;
2201;SDS011;1107;48.654;9.250;2023-06-14T04:30:34;8.73;;;8.03;;
2201;SDS011;1107;48.654;9.250;2023-06-14T04:33:05;10.53;;;8.20;;
2201;SDS011;1107;48.654;9.250;2023-06-14T04:35:31;8.63;;;8.03;;
2201;SDS011;1107;48.654;9.250;2023-06-14T04:38:02;7.90;;;7.50;;
2201;SDS011;1107;48.654;9.250;2023-06-14T04:40:30;8.70;;;8.20;;
2201;SDS011;1107;48.654;9.250;2023-06-14T04:42:58;13.33;;;8.57;;
2201;SDS011;1107;48.654;9.250;2023-06-14T04:45:26;11.47;;;8.40;;
2201;SDS011;1107;48.654;9.250;2023-06-14T04:47:56;10.37;;;9.40;;
2201;SDS011;1107;48.654;9.250;2023-06-14T04:50:26;9.70;;;8.90;;
2201;SDS011;1107;48.654;9.250;2023-06-14T04:52:54;9.33;;;8.80;;
2201;SDS011;1107;48.654;9.250;2023-06-14T04:55:22;10.13;;;9.27;;
2201;SDS011;1107;48.654;9.250;2023-06-14T04:57:49;9.47;;;8.63;;
2201;SDS011;1107;48.654;9.250;2023-06-14T05:00:18;9.80;;;8.97;;
2201;SDS011;1107;48.654;9.250;2023-06-14T05:02:46;10.30;;;9.40;;
2201;SDS011;1107;48.654;9.250;2023-06-14T05:05:14;10.00;;;9.23;;
2201;SDS011;1107;48.654;9.250;2023-06-14T05:07:43;11.27;;;9.40;;
2201;SDS011;1107;48.654;9.250;2023-06-14T05:10:11;10.13;;;9.33;;
2201;SDS011;1107;48.654;9.250;2023-06-14T05:12:38;15.80;;;8.80;;
2201;SDS011;1107;48.654;9.250;2023-06-14T05:15:06;10.60;;;9.70;;
2201;SDS011;1107;48.654;9.250;2023-06-14T05:17:34;9.23;;;8.73;;
2201;SDS011;1107;48.654;9.250;2023-06-14T05:20:02;9.47;;;8.87;;
2201;SDS011;1107;48.654;9.250;2023-06-14T05:22:30;10.17;;;9.27;;
2201;SDS011;1107;48.654;9.250;2023-06-14T05:24:58;9.97;;;9.30;;
2201;SDS011;1107;48.654;9.250;2023-06-14T05:27:25;10.47;;;9.73;;
2201;SDS011;1107;48.654;9.250;2023-06-14T05:29:52;12.00;;;10.77;;
2201;SDS011;1107;48.654;9.250;2023-06-14T05:32:20;10.00;;;9.30;;
2201;SDS011;1107;48.654;9.250;2023-06-14T05:34:47;11.23;;;10.20;;
2201;SDS011;1107;48.654;9.250;2023-06-14T05:37:15;10.87;;;9.80;;
2201;SDS011;1107;48.654;9.250;2023-06-14T05:39:42;12.17;;;10.90;;
2201;SDS011;1107;48.654;9.250;2023-06-14T05:42:10;10.97;;;10.03;;
2201;SDS011;1107;48.654;9.250;2023-06-14T05:44:37;11.77;;;9.10;;
2201;SDS011;1107;48.654;9.250;2023-06-14T05:47:04;11.00;;;10.00;;
2201;SDS011;1107;48.654;9.250;2023-06-14T05:49:31;10.83;;;9.87;;
2201;SDS011;1107;48.654;9.250;2023-06-14T05:51:58;15.97;;;9.40;;
2201;SDS011;1107;48.654;9.250;2023-06-14T05:54:26;10.57;;;9.73;;
2201;SDS011;1107;48.654;9.250;2023-06-14T05:56:53;10.60;;;9.57;;
2201;SDS011;1107;48.654;9.250;2023-06-14T05:59:21;10.67;;;9.77;;
2201;SDS011;1107;48.654;9.250;2023-06-14T06:01:48;9.67;;;9.07;;
2201;SDS011;1107;48.654;9.250;2023-06-14T06:04:15;9.57;;;8.80;;
2201;SDS011;1107;48.654;9.250;2023-06-14T06:06:42;9.70;;;9.20;;
2201;SDS011;1107;48.654;9.250;2023-06-14T06:09:09;9.47;;;8.73;;
2201;SDS011;1107;48.654;9.250;2023-06-14T06:11:35;10.17;;;9.50;;
2201;SDS011;1107;48.654;9.250;2023-06-14T06:14:02;11.33;;;9.63;;
2201;SDS011;1107;48.654;9.250;2023-06-14T06:16:31;9.90;;;9.07;;
2201;SDS011;1107;48.654;9.250;2023-06-14T06:18:57;9.07;;;8.47;;
2201;SDS011;1107;48.654;9.250;2023-06-14T06:21:25;8.67;;;8.07;;
2201;SDS011;1107;48.654;9.250;2023-06-14T06:23:52;9.17;;;8.57;;
2201;SDS011;1107;48.654;9.250;2023-06-14T06:26:19;10.03;;;8.97;;
2201;SDS011;1107;48.654;9.250;2023-06-14T06:28:47;8.83;;;8.07;;
2201;SDS011;1107;48.654;9.250;2023-06-14T06:31:14;9.77;;;8.90;;
2201;SDS011;1107;48.654;9.250;2023-06-14T06:33:43;10.93;;;9.70;;
2201;SDS011;1107;48.654;9.250;2023-06-14T06:36:10;8.33;;;7.93;;
2201;SDS011;1107;48.654;9.250;2023-06-14T06:38:36;10.47;;;8.90;;
2201;SDS011;1107;48.654;9.250;2023-06-14T06:41:03;15.23;;;8.47;;
2201;SDS011;1107;48.654;9.250;2023-06-14T06:43:30;8.30;;;7.90;;
2201;SDS011;1107;48.654;9.250;2023-06-14T06:45:57;13.23;;;7.40;;
2201;SDS011;1107;48.654;9.250;2023-06-14T06:48:24;11.67;;;10.40;;
2201;SDS011;1107;48.654;9.250;2023-06-14T06:50:53;15.10;;;8.03;;
2201;SDS011;1107;48.654;9.250;2023-06-14T06:53:19;10.07;;;7.70;;
2201;SDS011;1107;48.654;9.250;2023-06-14T06:55:46;8.00;;;7.60;;
2201;SDS011;1107;48.654;9.250;2023-06-14T06:58:13;9.33;;;8.43;;
2201;SDS011;1107;48.654;9.250;2023-06-14T07:00:40;8.60;;;8.00;;
2201;SDS011;1107;48.654;9.250;2023-06-14T07:03:07;7.73;;;7.43;;
2201;SDS011;1107;48.654;9.250;2023-06-14T07:05:34;11.30;;;7.07;;
2201;SDS011;1107;48.654;9.250;2023-06-14T07:08:02;7.40;;;7.00;;
2201;SDS011;1107;48.654;9.250;2023-06-14T07:10:30;8.30;;;7.73;;
2201;SDS011;1107;48.654;9.250;2023-06-14T07:12:57;7.83;;;7.43;;
2201;SDS011;1107;48.654;9.250;2023-06-14T07:15:23;8.60;;;7.80;;
2201;SDS011;1107;48.654;9.250;2023-06-14T07:17:50;7.90;;;7.30;;
2201;SDS011;1107;48.654;9.250;2023-06-14T07:20:18;7.03;;;6.73;;
2201;SDS011;1107;48.654;9.250;2023-06-14T07:22:47;7.63;;;7.00;;
2201;SDS011;1107;48.654;9.250;2023-06-14T07:25:15;6.70;;;6.17;;
2201;SDS011;1107;48.654;9.250;2023-06-14T07:27:45;7.07;;;6.70;;
2201;SDS011;1107;48.654;9.250;2023-06-14T07:30:12;7.47;;;6.90;;
2201;SDS011;1107;48.654;9.250;2023-06-14T07:32:39;7.03;;;6.57;;
2201;SDS011;1107;48.654;9.250;2023-06-14T07:35:07;6.83;;;6.33;;
2201;SDS011;1107;48.654;9.250;2023-06-14T07:37:34;6.67;;;6.20;;
2201;SDS011;1107;48.654;9.250;2023-06-14T07:40:01;7.27;;;6.97;;
2201;SDS011;1107;48.654;9.250;2023-06-14T07:42:33;7.07;;;6.47;;
2201;SDS011;1107;48.654;9.250;2023-06-14T07:45:00;6.77;;;6.37;;
2201;SDS011;1107;48.654;9.250;2023-06-14T07:47:27;7.43;;;7.13;;
2201;SDS011;1107;48.654;9.250;2023-06-14T07:49:55;12.80;;;7.90;;
2201;SDS011;1107;48.654;9.250;2023-06-14T07:52:22;8.40;;;7.60;;
2201;SDS011;1107;48.654;9.250;2023-06-14T07:54:49;8.70;;;7.80;;
2201;SDS011;1107;48.654;9.250;2023-06-14T07:57:16;9.57;;;7.83;;
2201;SDS011;1107;48.654;9.250;2023-06-14T07:59:46;7.10;;;6.57;;
2201;SDS011;1107;48.654;9.250;2023-06-14T08:02:13;7.43;;;6.77;;
2201;SDS011;1107;48.654;9.250;2023-06-14T08:04:40;8.00;;;7.40;;
2201;SDS011;1107;48.654;9.250;2023-06-14T08:07:07;6.90;;;6.60;;
2201;SDS011;1107;48.654;9.250;2023-06-14T08:09:34;7.70;;;7.10;;
2201;SDS011;1107;48.654;9.250;2023-06-14T08:12:03;7.93;;;7.40;;
2201;SDS011;1107;48.654;9.250;2023-06-14T08:14:32;6.33;;;6.03;;
2201;SDS011;1107;48.654;9.250;2023-06-14T08:17:00;6.60;;;6.30;;
2201;SDS011;1107;48.654;9.250;2023-06-14T08:19:28;7.87;;;7.17;;
2201;SDS011;1107;48.654;9.250;2023-06-14T08:21:54;6.80;;;6.50;;
2201;SDS011;1107;48.654;9.250;2023-06-14T08:24:22;8.67;;;6.80;;
2201;SDS011;1107;48.654;9.250;2023-06-14T08:26:50;6.80;;;6.30;;
2201;SDS011;1107;48.654;9.250;2023-06-14T08:29:17;7.20;;;6.60;;
2201;SDS011;1107;48.654;9.250;2023-06-14T08:31:44;7.17;;;6.30;;
2201;SDS011;1107;48.654;9.250;2023-06-14T08:34:13;6.37;;;6.07;;
2201;SDS011;1107;48.654;9.250;2023-06-14T08:36:40;6.63;;;6.33;;
2201;SDS011;1107;48.654;9.250;2023-06-14T08:39:07;6.67;;;6.37;;
2201;SDS011;1107;48.654;9.250;2023-06-14T08:41:34;6.77;;;6.50;;
2201;SDS011;1107;48.654;9.250;2023-06-14T08:44:02;9.40;;;5.93;;
2201;SDS011;1107;48.654;9.250;2023-06-14T08:46:30;6.80;;;6.40;;
2201;SDS011;1107;48.654;9.250;2023-06-14T08:49:00;7.10;;;6.80;;
2201;SDS011;1107;48.654;9.250;2023-06-14T08:51:29;7.90;;;6.90;;
2201;SDS011;1107;48.654;9.250;2023-06-14T08:53:59;7.20;;;6.70;;
2201;SDS011;1107;48.654;9.250;2023-06-14T08:56:29;6.50;;;6.10;;
2201;SDS011;1107;48.654;9.250;2023-06-14T08:58:59;8.43;;;6.50;;
2201;SDS011;1107;48.654;9.250;2023-06-14T09:01:28;6.97;;;6.40;;
2201;SDS011;1107;48.654;9.250;2023-06-14T09:03:56;7.50;;;7.20;;
2201;SDS011;1107;48.654;9.250;2023-06-14T09:06:24;6.97;;;6.67;;
2201;SDS011;1107;48.654;9.250;2023-06-14T09:08:54;6.63;;;6.33;;
2201;SDS011;1107;48.654;9.250;2023-06-14T09:11:22;7.87;;;7.30;;
2201;SDS011;1107;48.654;9.250;2023-06-14T09:13:51;7.13;;;6.70;;
2201;SDS011;1107;48.654;9.250;2023-06-14T09:16:18;6.97;;;6.67;;
2201;SDS011;1107;48.654;9.250;2023-06-14T09:18:46;7.00;;;6.40;;
2201;SDS011;1107;48.654;9.250;2023-06-14T09:21:14;6.87;;;6.60;;
2201;SDS011;1107;48.654;9.250;2023-06-14T09:23:42;6.83;;;6.53;;
2201;SDS011;1107;48.654;9.250;2023-06-14T09:26:11;7.77;;;7.00;;
2201;SDS011;1107;48.654;9.250;2023-06-14T09:28:42;8.43;;;7.70;;
2201;SDS011;1107;48.654;9.250;2023-06-14T09:31:10;7.50;;;7.20;;
2201;SDS011;1107;48.654;9.250;2023-06-14T09:33:38;7.47;;;6.87;;
2201;SDS011;1107;48.654;9.250;2023-06-14T09:36:10;6.30;;;6.10;;
2201;SDS011;1107;48.654;9.250;2023-06-14T09:38:39;7.30;;;6.90;;
2201;SDS011;1107;48.654;9.250;2023-06-14T09:41:06;6.73;;;6.33;;
2201;SDS011;1107;48.654;9.250;2023-06-14T09:43:35;6.90;;;6.40;;
2201;SDS011;1107;48.654;9.250;2023-06-14T09:46:03;7.37;;;6.73;;
2201;SDS011;1107;48.654;9.250;2023-06-14T09:48:32;8.33;;;7.30;;
2201;SDS011;1107;48.654;9.250;2023-06-14T09:50:59;6.77;;;6.20;;
2201;SDS011;1107;48.654;9.250;2023-06-14T09:53:29;6.30;;;6.00;;
2201;SDS011;1107;48.654;9.250;2023-06-14T09:55:58;6.97;;;6.30;;
2201;SDS011;1107;48.654;9.250;2023-06-14T09:58:26;7.33;;;6.60;;
2201;SDS011;1107;48.654;9.250;2023-06-14T10:00:55;6.77;;;6.30;;
2201;SDS011;1107;48.654;9.250;2023-06-14T10:03:25;6.90;;;6.50;;
2201;SDS011;1107;48.654;9.250;2023-06-14T10:05:55;6.20;;;5.80;;
2201;SDS011;1107;48.654;9.250;2023-06-14T10:08:27;10.43;;;6.00;;
2201;SDS011;1107;48.654;9.250;2023-06-14T10:10:58;6.70;;;6.13;;
2201;SDS011;1107;48.654;9.250;2023-06-14T10:13:25;5.73;;;5.43;;
2201;SDS011;1107;48.654;9.250;2023-06-14T10:15:58;6.60;;;6.13;;
2201;SDS011;1107;48.654;9.250;2023-06-14T10:18:33;6.43;;;6.03;;
2201;SDS011;1107;48.654;9.250;2023-06-14T10:21:08;6.80;;;6.43;;
2201;SDS011;1107;48.654;9.250;2023-06-14T10:23:42;6.50;;;6.00;;
2201;SDS011;1107;48.654;9.250;2023-06-14T10:26:17;6.97;;;6.67;;
2201;SDS011;1107;48.654;9.250;2023-06-14T10:28:53;6.00;;;5.70;;
2201;SDS011;1107;48.654;9.250;2023-06-14T10:31:24;6.27;;;5.97;;
2201;SDS011;1107;48.654;9.250;2023-06-14T10:34:06;6.77;;;6.47;;
2201;SDS011;1107;48.654;9.250;2023-06-14T10:36:33;10.10;;;5.83;;
2201;SDS011;1107;48.654;9.250;2023-06-14T10:39:03;6.97;;;6.50;;
2201;SDS011;1107;48.654;9.250;2023-06-14T10:41:34;6.20;;;5.90;;
2201;SDS011;1107;48.654;9.250;2023-06-14T10:47:09;6.53;;;6.23;;
2201;SDS011;1107;48.654;9.250;2023-06-14T10:49:52;6.97;;;6.67;;
2201;SDS011;1107;48.654;9.250;2023-06-14T10:52:23;6.50;;;6.00;;
2201;SDS011;1107;48.654;9.250;2023-06-14T10:57:40;6.67;;;6.27;;
2201;SDS011;1107;48.654;9.250;2023-06-14T11:00:09;6.10;;;5.60;;
2201;SDS011;1107;48.654;9.250;2023-06-14T11:03:11;6.33;;;6.07;;
2201;SDS011;1107;48.654;9.250;2023-06-14T11:06:07;6.87;;;6.57;;
2201;SDS011;1107;48.654;9.250;2023-06-14T11:11:52;7.17;;;6.67;;
2201;SDS011;1107;48.654;9.250;2023-06-14T11:14:22;7.53;;;7.10;;
2201;SDS011;1107;48.654;9.250;2023-06-14T11:16:49;7.10;;;6.73;;
2201;SDS011;1107;48.654;9.250;2023-06-14T11:19:18;6.87;;;6.57;;
2201;SDS011;1107;48.654;9.250;2023-06-14T11:21:47;6.30;;;5.90;;
2201;SDS011;1107;48.654;9.250;2023-06-14T11:24:14;7.53;;;7.20;;
2201;SDS011;1107;48.654;9.250;2023-06-14T11:26:41;6.80;;;6.50;;
2201;SDS011;1107;48.654;9.250;2023-06-14T11:29:08;7.03;;;6.27;;
2201;SDS011;1107;48.654;9.250;2023-06-14T11:31:35;6.93;;;6.63;;
2201;SDS011;1107;48.654;9.250;2023-06-14T11:34:02;7.40;;;7.00;;
2201;SDS011;1107;48.654;9.250;2023-06-14T11:36:33;6.53;;;6.23;;
2201;SDS011;1107;48.654;9.250;2023-06-14T11:39:00;8.17;;;6.50;;
2201;SDS011;1107;48.654;9.250;2023-06-14T11:41:35;8.77;;;7.13;;
2201;SDS011;1107;48.654;9.250;2023-06-14T11:44:03;6.63;;;6.33;;
2201;SDS011;1107;48.654;9.250;2023-06-14T11:46:31;7.13;;;6.60;;
2201;SDS011;1107;48.654;9.250;2023-06-14T11:48:58;6.90;;;6.33;;
2201;SDS011;1107;48.654;9.250;2023-06-14T11:51:28;6.50;;;6.20;;
2201;SDS011;1107;48.654;9.250;2023-06-14T11:53:56;6.50;;;6.20;;
2201;SDS011;1107;48.654;9.250;2023-06-14T11:56:24;7.77;;;7.37;;
2201;SDS011;1107;48.654;9.250;2023-06-14T11:58:52;7.10;;;6.60;;
2201;SDS011;1107;48.654;9.250;2023-06-14T12:01:21;6.80;;;6.50;;
2201;SDS011;1107;48.654;9.250;2023-06-14T12:03:48;7.27;;;6.77;;
2201;SDS011;1107;48.654;9.250;2023-06-14T12:06:16;7.13;;;6.70;;
2201;SDS011;1107;48.654;9.250;2023-06-14T12:08:55;6.70;;;6.40;;
2201;SDS011;1107;48.654;9.250;2023-06-14T12:11:23;6.17;;;5.67;;
2201;SDS011;1107;48.654;9.250;2023-06-14T12:13:54;7.13;;;6.53;;
2201;SDS011;1107;48.654;9.250;2023-06-14T12:16:29;7.37;;;6.70;;
2201;SDS011;1107;48.654;9.250;2023-06-14T12:18:59;6.60;;;6.23;;
2201;SDS011;1107;48.654;9.250;2023-06-14T12:21:27;6.97;;;6.67;;
2201;SDS011;1107;48.654;9.250;2023-06-14T12:23:56;5.80;;;5.60;;
2201;SDS011;1107;48.654;9.250;2023-06-14T12:26:23;9.37;;;6.17;;
2201;SDS011;1107;48.654;9.250;2023-06-14T12:28:52;6.60;;;6.30;;
2201;SDS011;1107;48.654;9.250;2023-06-14T12:31:20;6.63;;;6.33;;
2201;SDS011;1107;48.654;9.250;2023-06-14T12:33:47;6.63;;;6.27;;
2201;SDS011;1107;48.654;9.250;2023-06-14T12:36:15;7.00;;;6.50;;
2201;SDS011;1107;48.654;9.250;2023-06-14T12:38:42;6.60;;;6.30;;
2201;SDS011;1107;48.654;9.250;2023-06-14T12:41:12;8.40;;;5.87;;
2201;SDS011;1107;48.654;9.250;2023-06-14T12:43:39;6.67;;;6.33;;
2201;SDS011;1107;48.654;9.250;2023-06-14T12:46:07;11.80;;;7.30;;
2201;SDS011;1107;48.654;9.250;2023-06-14T12:48:34;6.97;;;6.57;;
2201;SDS011;1107;48.654;9.250;2023-06-14T12:51:00;6.67;;;6.27;;
2201;SDS011;1107;48.654;9.250;2023-06-14T12:53:27;10.03;;;6.17;;
2201;SDS011;1107;48.654;9.250;2023-06-14T12:55:54;6.20;;;6.00;;
2201;SDS011;1107;48.654;9.250;2023-06-14T12:58:23;6.70;;;6.40;;
2201;SDS011;1107;48.654;9.250;2023-06-14T13:00:49;8.03;;;7.43;;
2201;SDS011;1107;48.654;9.250;2023-06-14T13:03:17;6.40;;;6.10;;
2201;SDS011;1107;48.654;9.250;2023-06-14T13:05:44;6.30;;;6.00;;
2201;SDS011;1107;48.654;9.250;2023-06-14T13:08:11;7.27;;;6.97;;
2201;SDS011;1107;48.654;9.250;2023-06-14T13:10:38;7.03;;;6.70;;
2201;SDS011;1107;48.654;9.250;2023-06-14T13:13:05;7.13;;;6.63;;
2201;SDS011;1107;48.654;9.250;2023-06-14T13:15:34;6.60;;;6.30;;
2201;SDS011;1107;48.654;9.250;2023-06-14T13:18:01;7.60;;;6.30;;
2201;SDS011;1107;48.654;9.250;2023-06-14T13:20:28;9.83;;;6.17;;
2201;SDS011;1107;48.654;9.250;2023-06-14T13:22:55;7.93;;;5.60;;
2201;SDS011;1107;48.654;9.250;2023-06-14T13:25:22;8.47;;;7.20;;
2201;SDS011;1107;48.654;9.250;2023-06-14T13:27:49;6.00;;;5.70;;
2201;SDS011;1107;48.654;9.250;2023-06-14T13:30:16;5.90;;;5.60;;
2201;SDS011;1107;48.654;9.250;2023-06-14T13:32:44;6.53;;;6.10;;
2201;SDS011;1107;48.654;9.250;2023-06-14T13:35:11;6.53;;;6.23;;
2201;SDS011;1107;48.654;9.250;2023-06-14T13:37:38;6.87;;;6.57;;
2201;SDS011;1107;48.654;9.250;2023-06-14T13:40:06;7.10;;;6.67;;
2201;SDS011;1107;48.654;9.250;2023-06-14T13:42:33;7.20;;;6.07;;
2201;SDS011;1107;48.654;9.250;2023-06-14T13:45:01;6.90;;;6.30;;
2201;SDS011;1107;48.654;9.250;2023-06-14T13:47:28;6.60;;;6.20;;
2201;SDS011;1107;48.654;9.250;2023-06-14T13:49:57;6.20;;;5.70;;
2201;SDS011;1107;48.654;9.250;2023-06-14T13:52:24;7.07;;;6.63;;
2201;SDS011;1107;48.654;9.250;2023-06-14T13:54:52;5.97;;;5.67;;
2201;SDS011;1107;48.654;9.250;2023-06-14T13:57:19;5.67;;;5.27;;
2201;SDS011;1107;48.654;9.250;2023-06-14T13:59:46;9.20;;;6.13;;
2201;SDS011;1107;48.654;9.250;2023-06-14T14:02:13;6.33;;;6.03;;
2201;SDS011;1107;48.654;9.250;2023-06-14T14:04:40;14.70;;;6.63;;
2201;SDS011;1107;48.654;9.250;2023-06-14T14:07:09;6.30;;;6.00;;
2201;SDS011;1107;48.654;9.250;2023-06-14T14:09:36;6.40;;;6.00;;
2201;SDS011;1107;48.654;9.250;2023-06-14T14:12:04;6.53;;;6.23;;
2201;SDS011;1107;48.654;9.250;2023-06-14T14:14:32;6.73;;;6.13;;
2201;SDS011;1107;48.654;9.250;2023-06-14T14:16:59;6.00;;;5.70;;
2201;SDS011;1107;48.654;9.250;2023-06-14T14:19:26;6.67;;;6.30;;
2201;SDS011;1107;48.654;9.250;2023-06-14T14:21:53;6.37;;;6.10;;
2201;SDS011;1107;48.654;9.250;2023-06-14T14:24:21;6.77;;;6.47;;
2201;SDS011;1107;48.654;9.250;2023-06-14T14:26:48;6.00;;;5.60;;
2201;SDS011;1107;48.654;9.250;2023-06-14T14:29:18;7.00;;;6.40;;
2201;SDS011;1107;48.654;9.250;2023-06-14T14:31:45;6.37;;;6.17;;
2201;SDS011;1107;48.654;9.250;2023-06-14T14:34:12;9.00;;;6.17;;
2201;SDS011;1107;48.654;9.250;2023-06-14T14:36:39;6.27;;;5.87;;
2201;SDS011;1107;48.654;9.250;2023-06-14T14:39:07;6.63;;;6.03;;
2201;SDS011;1107;48.654;9.250;2023-06-14T14:41:35;6.53;;;6.23;;
2201;SDS011;1107;48.654;9.250;2023-06-14T14:44:03;6.67;;;6.37;;
2201;SDS011;1107;48.654;9.250;2023-06-14T14:46:31;6.60;;;6.20;;
2201;SDS011;1107;48.654;9.250;2023-06-14T14:48:58;6.80;;;6.50;;
2201;SDS011;1107;48.654;9.250;2023-06-14T14:51:25;8.70;;;5.87;;
2201;SDS011;1107;48.654;9.250;2023-06-14T14:53:52;6.17;;;5.87;;
2201;SDS011;1107;48.654;9.250;2023-06-14T14:56:19;6.97;;;6.47;;
2201;SDS011;1107;48.654;9.250;2023-06-14T14:58:47;6.70;;;6.40;;
2201;SDS011;1107;48.654;9.250;2023-06-14T15:01:14;6.80;;;6.40;;
2201;SDS011;1107;48.654;9.250;2023-06-14T15:03:42;6.83;;;6.23;;
2201;SDS011;1107;48.654;9.250;2023-06-14T15:06:08;6.60;;;6.20;;
2201;SDS011;1107;48.654;9.250;2023-06-14T15:08:35;6.50;;;6.20;;
2201;SDS011;1107;48.654;9.250;2023-06-14T15:11:02;6.27;;;5.70;;
2201;SDS011;1107;48.654;9.250;2023-06-14T15:13:29;6.10;;;5.80;;
2201;SDS011;1107;48.654;9.250;2023-06-14T15:15:57;6.30;;;6.00;;
2201;SDS011;1107;48.654;9.250;2023-06-14T15:18:24;6.17;;;5.87;;
2201;SDS011;1107;48.654;9.250;2023-06-14T15:20:51;6.17;;;5.87;;
2201;SDS011;1107;48.654;9.250;2023-06-14T15:23:18;7.43;;;6.93;;
2201;SDS011;1107;48.654;9.250;2023-06-14T15:25:45;7.67;;;7.13;;
2201;SDS011;1107;48.654;9.250;2023-06-14T15:28:13;6.77;;;6.47;;